Langley AFB, Virginia
Current Conditions -  °F | °C
As of 6:58 PM on Friday 24 Oct 2014 (Local Time) from KLFI Reporting Station
Few Clouds Few Clouds  
Wind Chill: 57°   Ceiling: Unl
Heat Index: 57°   Visibility: 10mi
Dew Point: 45°   Wind: 6mph
Humidity: 64%   Direction: 260°W
Pressure: 29.93"   Gusts: NA
Location:  37.0868°N, 76.3631°W
Report Text: KLFI 242258Z AUTO 26005KT 10SM FEW210 14/07 A2993 RMK AO2 SLP142 T01390073 $
Loading
Personal Weather Stations






























Interactive Weather Map
Tropical Storm Tracking
New forecast layout! Learn more

10-Day Weather Forecast

Advertisements
Track Severe Weather on mobile